sensor_id;sensor_type;location;lat;lon;timestamp;P1;durP1;ratioP1;P2;durP2;ratioP2
12359;SDS011;6244;51.460;7.090;2023-07-31T00:01:53;8.55;;;4.70;;
12359;SDS011;6244;51.460;7.090;2023-07-31T00:06:50;10.68;;;5.07;;
12359;SDS011;6244;51.460;7.090;2023-07-31T00:11:46;9.85;;;4.75;;
12359;SDS011;6244;51.460;7.090;2023-07-31T00:16:44;12.43;;;5.47;;
12359;SDS011;6244;51.460;7.090;2023-07-31T00:21:41;11.90;;;5.40;;
12359;SDS011;6244;51.460;7.090;2023-07-31T00:26:37;9.18;;;5.38;;
12359;SDS011;6244;51.460;7.090;2023-07-31T00:31:34;9.70;;;5.78;;
12359;SDS011;6244;51.460;7.090;2023-07-31T00:36:32;11.90;;;5.85;;
12359;SDS011;6244;51.460;7.090;2023-07-31T00:41:28;12.20;;;5.75;;
12359;SDS011;6244;51.460;7.090;2023-07-31T00:46:25;12.02;;;5.57;;
12359;SDS011;6244;51.460;7.090;2023-07-31T00:51:21;13.88;;;6.22;;
12359;SDS011;6244;51.460;7.090;2023-07-31T00:56:19;10.90;;;5.25;;
12359;SDS011;6244;51.460;7.090;2023-07-31T01:01:16;8.80;;;4.75;;
12359;SDS011;6244;51.460;7.090;2023-07-31T01:06:14;13.45;;;5.40;;
12359;SDS011;6244;51.460;7.090;2023-07-31T01:11:14;13.30;;;6.32;;
12359;SDS011;6244;51.460;7.090;2023-07-31T01:16:14;13.13;;;5.40;;
12359;SDS011;6244;51.460;7.090;2023-07-31T01:21:16;14.07;;;5.38;;
12359;SDS011;6244;51.460;7.090;2023-07-31T01:26:21;10.98;;;4.82;;
12359;SDS011;6244;51.460;7.090;2023-07-31T01:31:21;12.00;;;5.45;;
12359;SDS011;6244;51.460;7.090;2023-07-31T01:36:19;11.75;;;5.78;;
12359;SDS011;6244;51.460;7.090;2023-07-31T01:41:16;10.40;;;4.53;;
12359;SDS011;6244;51.460;7.090;2023-07-31T01:46:14;9.95;;;4.55;;
12359;SDS011;6244;51.460;7.090;2023-07-31T01:51:11;10.38;;;4.00;;
12359;SDS011;6244;51.460;7.090;2023-07-31T01:56:07;11.63;;;5.25;;
12359;SDS011;6244;51.460;7.090;2023-07-31T02:01:04;12.35;;;4.90;;
12359;SDS011;6244;51.460;7.090;2023-07-31T02:06:02;7.00;;;4.35;;
12359;SDS011;6244;51.460;7.090;2023-07-31T02:10:59;10.40;;;4.25;;
12359;SDS011;6244;51.460;7.090;2023-07-31T02:15:55;7.68;;;4.18;;
12359;SDS011;6244;51.460;7.090;2023-07-31T02:20:52;11.57;;;4.60;;
12359;SDS011;6244;51.460;7.090;2023-07-31T02:25:50;7.85;;;4.35;;
12359;SDS011;6244;51.460;7.090;2023-07-31T02:30:47;11.85;;;5.13;;
12359;SDS011;6244;51.460;7.090;2023-07-31T02:35:43;9.10;;;4.90;;
12359;SDS011;6244;51.460;7.090;2023-07-31T02:40:40;12.60;;;4.53;;
12359;SDS011;6244;51.460;7.090;2023-07-31T02:45:38;14.88;;;4.95;;
12359;SDS011;6244;51.460;7.090;2023-07-31T02:50:35;10.93;;;4.50;;
12359;SDS011;6244;51.460;7.090;2023-07-31T02:55:31;11.25;;;4.57;;
12359;SDS011;6244;51.460;7.090;2023-07-31T03:00:28;8.68;;;4.45;;
12359;SDS011;6244;51.460;7.090;2023-07-31T03:05:26;12.13;;;4.95;;
12359;SDS011;6244;51.460;7.090;2023-07-31T03:10:22;11.10;;;4.95;;
12359;SDS011;6244;51.460;7.090;2023-07-31T03:15:19;11.10;;;4.60;;
12359;SDS011;6244;51.460;7.090;2023-07-31T03:20:15;8.13;;;4.10;;
12359;SDS011;6244;51.460;7.090;2023-07-31T03:25:13;10.95;;;4.65;;
12359;SDS011;6244;51.460;7.090;2023-07-31T03:30:10;11.38;;;4.65;;
12359;SDS011;6244;51.460;7.090;2023-07-31T03:35:07;10.02;;;5.15;;
12359;SDS011;6244;51.460;7.090;2023-07-31T03:40:04;12.52;;;4.82;;
12359;SDS011;6244;51.460;7.090;2023-07-31T03:45:03;9.00;;;4.40;;
12359;SDS011;6244;51.460;7.090;2023-07-31T03:50:00;9.32;;;4.47;;
12359;SDS011;6244;51.460;7.090;2023-07-31T03:54:57;11.02;;;4.60;;
12359;SDS011;6244;51.460;7.090;2023-07-31T03:59:53;9.30;;;5.07;;
12359;SDS011;6244;51.460;7.090;2023-07-31T04:04:51;6.53;;;4.10;;
12359;SDS011;6244;51.460;7.090;2023-07-31T04:09:47;8.57;;;4.50;;
12359;SDS011;6244;51.460;7.090;2023-07-31T04:14:44;9.00;;;4.50;;
12359;SDS011;6244;51.460;7.090;2023-07-31T04:19:40;9.80;;;4.32;;
12359;SDS011;6244;51.460;7.090;2023-07-31T04:24:38;13.75;;;4.47;;
12359;SDS011;6244;51.460;7.090;2023-07-31T04:29:35;7.97;;;4.18;;
12359;SDS011;6244;51.460;7.090;2023-07-31T04:34:31;12.00;;;4.95;;
12359;SDS011;6244;51.460;7.090;2023-07-31T04:39:28;9.23;;;4.18;;
12359;SDS011;6244;51.460;7.090;2023-07-31T04:44:26;9.02;;;4.28;;
12359;SDS011;6244;51.460;7.090;2023-07-31T04:49:22;9.52;;;4.50;;
12359;SDS011;6244;51.460;7.090;2023-07-31T04:54:19;11.98;;;5.20;;
12359;SDS011;6244;51.460;7.090;2023-07-31T04:59:15;22.20;;;7.15;;
12359;SDS011;6244;51.460;7.090;2023-07-31T05:04:13;9.95;;;4.75;;
12359;SDS011;6244;51.460;7.090;2023-07-31T05:09:10;12.48;;;5.03;;
12359;SDS011;6244;51.460;7.090;2023-07-31T05:14:07;13.20;;;5.25;;
12359;SDS011;6244;51.460;7.090;2023-07-31T05:19:03;8.88;;;4.45;;
12359;SDS011;6244;51.460;7.090;2023-07-31T05:24:01;7.68;;;4.65;;
12359;SDS011;6244;51.460;7.090;2023-07-31T05:28:58;8.05;;;4.10;;
12359;SDS011;6244;51.460;7.090;2023-07-31T05:33:54;12.50;;;4.75;;
12359;SDS011;6244;51.460;7.090;2023-07-31T05:38:51;10.80;;;5.25;;
12359;SDS011;6244;51.460;7.090;2023-07-31T05:43:49;7.85;;;5.13;;
12359;SDS011;6244;51.460;7.090;2023-07-31T05:48:46;8.38;;;4.68;;
12359;SDS011;6244;51.460;7.090;2023-07-31T05:53:43;7.93;;;4.70;;
12359;SDS011;6244;51.460;7.090;2023-07-31T05:58:39;7.65;;;5.13;;
12359;SDS011;6244;51.460;7.090;2023-07-31T06:03:37;8.02;;;4.55;;
12359;SDS011;6244;51.460;7.090;2023-07-31T06:08:34;9.00;;;4.45;;
12359;SDS011;6244;51.460;7.090;2023-07-31T06:13:30;7.63;;;5.20;;
12359;SDS011;6244;51.460;7.090;2023-07-31T06:18:27;8.13;;;4.68;;
12359;SDS011;6244;51.460;7.090;2023-07-31T06:23:25;9.95;;;4.65;;
12359;SDS011;6244;51.460;7.090;2023-07-31T06:28:25;9.65;;;4.95;;
12359;SDS011;6244;51.460;7.090;2023-07-31T06:33:25;8.02;;;4.95;;
12359;SDS011;6244;51.460;7.090;2023-07-31T06:38:22;9.63;;;5.40;;
12359;SDS011;6244;51.460;7.090;2023-07-31T06:43:21;11.10;;;5.10;;
12359;SDS011;6244;51.460;7.090;2023-07-31T06:48:18;10.90;;;4.50;;
12359;SDS011;6244;51.460;7.090;2023-07-31T06:53:14;11.10;;;5.90;;
12359;SDS011;6244;51.460;7.090;2023-07-31T06:58:11;11.30;;;5.55;;
12359;SDS011;6244;51.460;7.090;2023-07-31T07:03:09;10.13;;;4.95;;
12359;SDS011;6244;51.460;7.090;2023-07-31T07:08:05;11.32;;;5.10;;
12359;SDS011;6244;51.460;7.090;2023-07-31T07:13:02;12.63;;;5.43;;
12359;SDS011;6244;51.460;7.090;2023-07-31T07:17:58;7.78;;;4.93;;
12359;SDS011;6244;51.460;7.090;2023-07-31T07:22:56;9.38;;;5.35;;
12359;SDS011;6244;51.460;7.090;2023-07-31T07:27:53;8.93;;;5.10;;
12359;SDS011;6244;51.460;7.090;2023-07-31T07:32:49;8.43;;;4.85;;
12359;SDS011;6244;51.460;7.090;2023-07-31T07:37:48;9.73;;;5.45;;
12359;SDS011;6244;51.460;7.090;2023-07-31T07:42:46;9.93;;;5.03;;
12359;SDS011;6244;51.460;7.090;2023-07-31T07:47:42;12.60;;;5.95;;
12359;SDS011;6244;51.460;7.090;2023-07-31T07:52:39;9.93;;;5.18;;
12359;SDS011;6244;51.460;7.090;2023-07-31T07:57:36;9.90;;;4.80;;
12359;SDS011;6244;51.460;7.090;2023-07-31T08:02:33;8.05;;;4.60;;
12359;SDS011;6244;51.460;7.090;2023-07-31T08:07:30;8.45;;;5.13;;
12359;SDS011;6244;51.460;7.090;2023-07-31T08:12:26;8.55;;;4.82;;
12359;SDS011;6244;51.460;7.090;2023-07-31T08:17:23;8.10;;;4.53;;
12359;SDS011;6244;51.460;7.090;2023-07-31T08:22:21;8.18;;;4.93;;
12359;SDS011;6244;51.460;7.090;2023-07-31T08:27:18;8.27;;;4.38;;
12359;SDS011;6244;51.460;7.090;2023-07-31T08:32:15;6.70;;;4.10;;
12359;SDS011;6244;51.460;7.090;2023-07-31T08:37:11;10.40;;;4.30;;
12359;SDS011;6244;51.460;7.090;2023-07-31T08:42:09;6.03;;;4.30;;
12359;SDS011;6244;51.460;7.090;2023-07-31T08:47:06;7.93;;;4.43;;
12359;SDS011;6244;51.460;7.090;2023-07-31T08:52:03;6.82;;;3.70;;
12359;SDS011;6244;51.460;7.090;2023-07-31T08:57:00;9.02;;;4.50;;
12359;SDS011;6244;51.460;7.090;2023-07-31T09:02:00;11.25;;;5.95;;
12359;SDS011;6244;51.460;7.090;2023-07-31T09:07:02;9.38;;;4.70;;
12359;SDS011;6244;51.460;7.090;2023-07-31T09:11:59;9.48;;;4.28;;
12359;SDS011;6244;51.460;7.090;2023-07-31T09:16:59;7.63;;;4.00;;
12359;SDS011;6244;51.460;7.090;2023-07-31T09:21:55;6.38;;;3.60;;
12359;SDS011;6244;51.460;7.090;2023-07-31T09:26:53;6.68;;;3.75;;
12359;SDS011;6244;51.460;7.090;2023-07-31T09:31:51;9.82;;;4.03;;
12359;SDS011;6244;51.460;7.090;2023-07-31T09:36:50;9.45;;;3.95;;
12359;SDS011;6244;51.460;7.090;2023-07-31T09:41:53;5.97;;;4.97;;
12359;SDS011;6244;51.460;7.090;2023-07-31T09:46:51;6.55;;;3.65;;
12359;SDS011;6244;51.460;7.090;2023-07-31T09:51:47;6.95;;;3.60;;
12359;SDS011;6244;51.460;7.090;2023-07-31T09:56:46;5.55;;;3.13;;
12359;SDS011;6244;51.460;7.090;2023-07-31T10:01:44;4.63;;;3.17;;
12359;SDS011;6244;51.460;7.090;2023-07-31T10:06:42;24.35;;;9.10;;
12359;SDS011;6244;51.460;7.090;2023-07-31T10:11:46;5.90;;;3.28;;
12359;SDS011;6244;51.460;7.090;2023-07-31T10:16:48;9.68;;;5.32;;
12359;SDS011;6244;51.460;7.090;2023-07-31T10:21:46;9.07;;;4.53;;
12359;SDS011;6244;51.460;7.090;2023-07-31T10:26:49;7.30;;;3.70;;
12359;SDS011;6244;51.460;7.090;2023-07-31T10:31:48;5.60;;;3.90;;
12359;SDS011;6244;51.460;7.090;2023-07-31T10:36:45;5.28;;;3.53;;
12359;SDS011;6244;51.460;7.090;2023-07-31T10:41:41;7.72;;;4.13;;
12359;SDS011;6244;51.460;7.090;2023-07-31T10:46:39;5.20;;;3.63;;
12359;SDS011;6244;51.460;7.090;2023-07-31T10:51:36;9.98;;;4.50;;
12359;SDS011;6244;51.460;7.090;2023-07-31T10:56:36;9.60;;;4.90;;
12359;SDS011;6244;51.460;7.090;2023-07-31T11:01:54;8.13;;;5.53;;
12359;SDS011;6244;51.460;7.090;2023-07-31T11:06:56;8.73;;;5.15;;
12359;SDS011;6244;51.460;7.090;2023-07-31T11:11:53;9.15;;;5.43;;
12359;SDS011;6244;51.460;7.090;2023-07-31T11:16:52;15.57;;;6.15;;
12359;SDS011;6244;51.460;7.090;2023-07-31T11:21:50;8.73;;;4.93;;
12359;SDS011;6244;51.460;7.090;2023-07-31T11:26:48;9.60;;;4.72;;
12359;SDS011;6244;51.460;7.090;2023-07-31T11:31:46;10.55;;;5.10;;
12359;SDS011;6244;51.460;7.090;2023-07-31T11:36:53;8.55;;;4.75;;
12359;SDS011;6244;51.460;7.090;2023-07-31T11:41:51;7.47;;;3.70;;
12359;SDS011;6244;51.460;7.090;2023-07-31T11:46:47;6.15;;;4.25;;
12359;SDS011;6244;51.460;7.090;2023-07-31T11:51:44;7.25;;;4.53;;
12359;SDS011;6244;51.460;7.090;2023-07-31T11:56:42;6.15;;;4.05;;
12359;SDS011;6244;51.460;7.090;2023-07-31T12:01:40;7.13;;;3.60;;
12359;SDS011;6244;51.460;7.090;2023-07-31T12:06:38;7.15;;;3.35;;
12359;SDS011;6244;51.460;7.090;2023-07-31T12:11:43;8.80;;;4.32;;
12359;SDS011;6244;51.460;7.090;2023-07-31T12:16:40;10.57;;;4.47;;
12359;SDS011;6244;51.460;7.090;2023-07-31T12:21:37;6.38;;;3.45;;
12359;SDS011;6244;51.460;7.090;2023-07-31T12:26:34;6.15;;;3.22;;
12359;SDS011;6244;51.460;7.090;2023-07-31T12:31:33;6.53;;;3.70;;
12359;SDS011;6244;51.460;7.090;2023-07-31T12:36:31;6.47;;;3.83;;
12359;SDS011;6244;51.460;7.090;2023-07-31T12:41:30;6.07;;;3.65;;
12359;SDS011;6244;51.460;7.090;2023-07-31T12:46:27;5.72;;;3.50;;
12359;SDS011;6244;51.460;7.090;2023-07-31T12:51:25;6.22;;;3.50;;
12359;SDS011;6244;51.460;7.090;2023-07-31T12:56:22;5.60;;;3.20;;
12359;SDS011;6244;51.460;7.090;2023-07-31T13:01:18;5.03;;;3.17;;
12359;SDS011;6244;51.460;7.090;2023-07-31T13:06:15;5.43;;;3.40;;
12359;SDS011;6244;51.460;7.090;2023-07-31T13:11:13;5.47;;;3.40;;
12359;SDS011;6244;51.460;7.090;2023-07-31T13:16:10;5.45;;;3.40;;
12359;SDS011;6244;51.460;7.090;2023-07-31T13:21:07;5.68;;;3.65;;
12359;SDS011;6244;51.460;7.090;2023-07-31T13:26:03;4.38;;;3.55;;
12359;SDS011;6244;51.460;7.090;2023-07-31T13:31:02;5.40;;;3.40;;
12359;SDS011;6244;51.460;7.090;2023-07-31T13:35:58;5.78;;;4.00;;
12359;SDS011;6244;51.460;7.090;2023-07-31T13:40:55;6.28;;;3.97;;
12359;SDS011;6244;51.460;7.090;2023-07-31T13:45:52;5.40;;;3.33;;
12359;SDS011;6244;51.460;7.090;2023-07-31T13:50:50;4.93;;;3.65;;
12359;SDS011;6244;51.460;7.090;2023-07-31T13:55:47;5.75;;;3.45;;
12359;SDS011;6244;51.460;7.090;2023-07-31T14:00:44;6.00;;;4.15;;
12359;SDS011;6244;51.460;7.090;2023-07-31T14:05:41;7.00;;;3.70;;
12359;SDS011;6244;51.460;7.090;2023-07-31T14:10:39;5.50;;;3.53;;
12359;SDS011;6244;51.460;7.090;2023-07-31T14:15:36;4.88;;;3.13;;
12359;SDS011;6244;51.460;7.090;2023-07-31T14:20:32;6.40;;;3.70;;
12359;SDS011;6244;51.460;7.090;2023-07-31T14:25:29;6.45;;;3.80;;
12359;SDS011;6244;51.460;7.090;2023-07-31T14:30:27;5.65;;;3.60;;
12359;SDS011;6244;51.460;7.090;2023-07-31T14:35:23;5.47;;;3.67;;
12359;SDS011;6244;51.460;7.090;2023-07-31T14:40:20;9.30;;;3.80;;
12359;SDS011;6244;51.460;7.090;2023-07-31T14:45:17;7.90;;;3.80;;
12359;SDS011;6244;51.460;7.090;2023-07-31T14:50:15;5.35;;;3.80;;
12359;SDS011;6244;51.460;7.090;2023-07-31T14:55:12;5.65;;;3.58;;
12359;SDS011;6244;51.460;7.090;2023-07-31T15:00:09;6.07;;;4.00;;
12359;SDS011;6244;51.460;7.090;2023-07-31T15:05:06;7.15;;;3.92;;
12359;SDS011;6244;51.460;7.090;2023-07-31T15:10:05;5.45;;;3.50;;
12359;SDS011;6244;51.460;7.090;2023-07-31T15:15:03;9.70;;;4.57;;
12359;SDS011;6244;51.460;7.090;2023-07-31T15:20:01;6.85;;;4.20;;
12359;SDS011;6244;51.460;7.090;2023-07-31T15:24:57;5.75;;;4.07;;
12359;SDS011;6244;51.460;7.090;2023-07-31T15:29:55;5.88;;;4.32;;
12359;SDS011;6244;51.460;7.090;2023-07-31T15:34:52;8.48;;;4.63;;
12359;SDS011;6244;51.460;7.090;2023-07-31T15:39:48;7.20;;;4.43;;
12359;SDS011;6244;51.460;7.090;2023-07-31T15:44:45;7.93;;;4.45;;
12359;SDS011;6244;51.460;7.090;2023-07-31T15:49:43;5.80;;;3.95;;
12359;SDS011;6244;51.460;7.090;2023-07-31T15:54:39;5.45;;;3.90;;
12359;SDS011;6244;51.460;7.090;2023-07-31T15:59:36;7.57;;;4.15;;
12359;SDS011;6244;51.460;7.090;2023-07-31T16:04:32;6.50;;;4.28;;
12359;SDS011;6244;51.460;7.090;2023-07-31T16:09:30;6.85;;;4.60;;
12359;SDS011;6244;51.460;7.090;2023-07-31T16:14:26;7.07;;;4.30;;
12359;SDS011;6244;51.460;7.090;2023-07-31T16:19:23;6.90;;;4.68;;
12359;SDS011;6244;51.460;7.090;2023-07-31T16:24:20;7.13;;;4.40;;
12359;SDS011;6244;51.460;7.090;2023-07-31T16:29:17;8.00;;;4.63;;
12359;SDS011;6244;51.460;7.090;2023-07-31T16:34:14;7.80;;;4.57;;
12359;SDS011;6244;51.460;7.090;2023-07-31T16:39:10;7.18;;;4.20;;
12359;SDS011;6244;51.460;7.090;2023-07-31T16:44:07;6.15;;;4.35;;
12359;SDS011;6244;51.460;7.090;2023-07-31T16:49:05;6.07;;;4.30;;
12359;SDS011;6244;51.460;7.090;2023-07-31T16:54:01;9.85;;;4.72;;
12359;SDS011;6244;51.460;7.090;2023-07-31T16:58:58;7.75;;;4.47;;
12359;SDS011;6244;51.460;7.090;2023-07-31T17:03:55;10.23;;;5.38;;
12359;SDS011;6244;51.460;7.090;2023-07-31T17:08:52;10.00;;;6.32;;
12359;SDS011;6244;51.460;7.090;2023-07-31T17:13:50;10.15;;;6.50;;
12359;SDS011;6244;51.460;7.090;2023-07-31T17:18:46;12.60;;;9.18;;
12359;SDS011;6244;51.460;7.090;2023-07-31T17:23:43;11.35;;;8.02;;
12359;SDS011;6244;51.460;7.090;2023-07-31T17:28:41;12.60;;;6.35;;
12359;SDS011;6244;51.460;7.090;2023-07-31T17:33:37;7.32;;;5.05;;
12359;SDS011;6244;51.460;7.090;2023-07-31T17:38:34;6.47;;;4.18;;
12359;SDS011;6244;51.460;7.090;2023-07-31T17:43:31;6.50;;;3.85;;
12359;SDS011;6244;51.460;7.090;2023-07-31T17:48:28;6.63;;;4.03;;
12359;SDS011;6244;51.460;7.090;2023-07-31T17:53:25;7.70;;;3.58;;
12359;SDS011;6244;51.460;7.090;2023-07-31T17:58:22;5.47;;;3.55;;
12359;SDS011;6244;51.460;7.090;2023-07-31T18:03:18;5.53;;;3.47;;
12359;SDS011;6244;51.460;7.090;2023-07-31T18:08:17;4.43;;;3.03;;
12359;SDS011;6244;51.460;7.090;2023-07-31T18:13:14;5.63;;;3.53;;
12359;SDS011;6244;51.460;7.090;2023-07-31T18:18:11;5.85;;;3.30;;
12359;SDS011;6244;51.460;7.090;2023-07-31T18:23:08;4.90;;;3.15;;
12359;SDS011;6244;51.460;7.090;2023-07-31T18:28:06;4.45;;;2.80;;
12359;SDS011;6244;51.460;7.090;2023-07-31T18:33:02;6.45;;;2.88;;
12359;SDS011;6244;51.460;7.090;2023-07-31T18:37:59;3.60;;;2.53;;
12359;SDS011;6244;51.460;7.090;2023-07-31T18:42:55;4.00;;;2.92;;
12359;SDS011;6244;51.460;7.090;2023-07-31T18:47:54;3.75;;;2.50;;
12359;SDS011;6244;51.460;7.090;2023-07-31T18:52:50;4.35;;;3.00;;
12359;SDS011;6244;51.460;7.090;2023-07-31T18:57:47;4.28;;;2.80;;
12359;SDS011;6244;51.460;7.090;2023-07-31T19:02:44;4.13;;;2.75;;
12359;SDS011;6244;51.460;7.090;2023-07-31T19:07:42;5.28;;;2.92;;
12359;SDS011;6244;51.460;7.090;2023-07-31T19:12:39;4.95;;;3.22;;
12359;SDS011;6244;51.460;7.090;2023-07-31T19:17:36;4.65;;;2.97;;
12359;SDS011;6244;51.460;7.090;2023-07-31T19:22:35;3.85;;;2.75;;
12359;SDS011;6244;51.460;7.090;2023-07-31T19:27:33;3.35;;;2.20;;
12359;SDS011;6244;51.460;7.090;2023-07-31T19:32:29;4.30;;;2.58;;
12359;SDS011;6244;51.460;7.090;2023-07-31T19:37:26;4.82;;;2.83;;
12359;SDS011;6244;51.460;7.090;2023-07-31T19:42:22;3.42;;;2.38;;
12359;SDS011;6244;51.460;7.090;2023-07-31T19:47:20;3.35;;;2.47;;
12359;SDS011;6244;51.460;7.090;2023-07-31T19:52:17;3.70;;;2.50;;
12359;SDS011;6244;51.460;7.090;2023-07-31T19:57:13;5.07;;;2.50;;
12359;SDS011;6244;51.460;7.090;2023-07-31T20:02:10;3.67;;;2.35;;
12359;SDS011;6244;51.460;7.090;2023-07-31T20:07:08;2.85;;;2.30;;
12359;SDS011;6244;51.460;7.090;2023-07-31T20:12:05;3.05;;;2.28;;
12359;SDS011;6244;51.460;7.090;2023-07-31T20:17:03;3.38;;;2.40;;
12359;SDS011;6244;51.460;7.090;2023-07-31T20:22:00;5.80;;;2.78;;
12359;SDS011;6244;51.460;7.090;2023-07-31T20:26:58;4.45;;;2.55;;
12359;SDS011;6244;51.460;7.090;2023-07-31T20:31:54;4.70;;;2.50;;
12359;SDS011;6244;51.460;7.090;2023-07-31T20:36:51;3.63;;;2.20;;
12359;SDS011;6244;51.460;7.090;2023-07-31T20:41:47;4.03;;;2.28;;
12359;SDS011;6244;51.460;7.090;2023-07-31T20:46:46;4.45;;;2.15;;
12359;SDS011;6244;51.460;7.090;2023-07-31T20:51:43;3.28;;;2.28;;
12359;SDS011;6244;51.460;7.090;2023-07-31T20:56:42;3.30;;;2.20;;
12359;SDS011;6244;51.460;7.090;2023-07-31T21:01:39;3.85;;;1.92;;
12359;SDS011;6244;51.460;7.090;2023-07-31T21:06:38;3.28;;;1.90;;
12359;SDS011;6244;51.460;7.090;2023-07-31T21:11:35;3.38;;;2.08;;
12359;SDS011;6244;51.460;7.090;2023-07-31T21:16:32;3.38;;;2.03;;
12359;SDS011;6244;51.460;7.090;2023-07-31T21:21:28;3.15;;;1.70;;
12359;SDS011;6244;51.460;7.090;2023-07-31T21:26:26;2.95;;;1.80;;
12359;SDS011;6244;51.460;7.090;2023-07-31T21:31:23;3.00;;;2.03;;
12359;SDS011;6244;51.460;7.090;2023-07-31T21:36:19;3.60;;;1.90;;
12359;SDS011;6244;51.460;7.090;2023-07-31T21:41:16;3.28;;;2.45;;
12359;SDS011;6244;51.460;7.090;2023-07-31T21:46:14;2.88;;;1.92;;
12359;SDS011;6244;51.460;7.090;2023-07-31T21:51:12;2.28;;;1.77;;
12359;SDS011;6244;51.460;7.090;2023-07-31T21:56:09;2.75;;;1.65;;
12359;SDS011;6244;51.460;7.090;2023-07-31T22:01:05;3.22;;;2.22;;
12359;SDS011;6244;51.460;7.090;2023-07-31T22:06:03;3.20;;;2.17;;
12359;SDS011;6244;51.460;7.090;2023-07-31T22:11:00;4.50;;;2.40;;
12359;SDS011;6244;51.460;7.090;2023-07-31T22:15:56;4.28;;;2.03;;
12359;SDS011;6244;51.460;7.090;2023-07-31T22:20:53;2.85;;;1.77;;
12359;SDS011;6244;51.460;7.090;2023-07-31T22:25:51;4.65;;;2.30;;
12359;SDS011;6244;51.460;7.090;2023-07-31T22:30:47;4.15;;;1.95;;
12359;SDS011;6244;51.460;7.090;2023-07-31T22:35:44;2.90;;;2.22;;
12359;SDS011;6244;51.460;7.090;2023-07-31T22:40:40;3.60;;;2.00;;
12359;SDS011;6244;51.460;7.090;2023-07-31T22:45:43;2.90;;;1.63;;
12359;SDS011;6244;51.460;7.090;2023-07-31T22:50:40;1.45;;;1.35;;
12359;SDS011;6244;51.460;7.090;2023-07-31T22:55:37;1.60;;;1.35;;
12359;SDS011;6244;51.460;7.090;2023-07-31T23:00:33;3.28;;;1.80;;
12359;SDS011;6244;51.460;7.090;2023-07-31T23:05:31;2.55;;;1.60;;
12359;SDS011;6244;51.460;7.090;2023-07-31T23:10:28;1.58;;;1.10;;
12359;SDS011;6244;51.460;7.090;2023-07-31T23:15:26;5.28;;;1.80;;
12359;SDS011;6244;51.460;7.090;2023-07-31T23:20:22;2.20;;;1.60;;
12359;SDS011;6244;51.460;7.090;2023-07-31T23:25:20;2.25;;;1.55;;
12359;SDS011;6244;51.460;7.090;2023-07-31T23:30:17;2.58;;;1.90;;
12359;SDS011;6244;51.460;7.090;2023-07-31T23:35:13;2.70;;;2.00;;
12359;SDS011;6244;51.460;7.090;2023-07-31T23:40:10;1.95;;;1.50;;
12359;SDS011;6244;51.460;7.090;2023-07-31T23:45:10;2.38;;;1.60;;
12359;SDS011;6244;51.460;7.090;2023-07-31T23:50:10;3.33;;;1.97;;
12359;SDS011;6244;51.460;7.090;2023-07-31T23:55:08;1.85;;;1.70;;
